Time;durP1;ratioP1;P1;durP2;ratioP2;P2;SDS_P1;SDS_P2;PMS_P1;PMS_P2;Temp;Humidity;BMP_temperature;BMP_pressure;BME280_temperature;BME280_humidity;BME280_pressure;Samples;Min_cycle;Max_cycle;Signal;HPM_P1;HPM_P2
2021/12/10 00:00:52;;;;;;;82.03;31.13;;;4.60;99.90;;;;;;5091745;28;20123;-84
2021/12/10 00:03:26;;;;;;;79.82;30.92;;;4.50;99.90;;;;;;5095298;28;20051;-83
2021/12/10 00:05:59;;;;;;;82.82;31.40;;;4.50;99.90;;;;;;5095529;28;20048;-83
2021/12/10 00:08:28;;;;;;;79.95;29.90;;;4.50;99.90;;;;;;5095825;28;20091;-84
2021/12/10 00:10:57;;;;;;;79.15;28.67;;;4.50;99.90;;;;;;5095503;28;20048;-84
2021/12/10 00:13:24;;;;;;;83.93;31.75;;;4.50;99.90;;;;;;5095295;28;20085;-84
2021/12/10 00:15:53;;;;;;;81.57;29.15;;;4.60;99.90;;;;;;5095248;28;20040;-83
2021/12/10 00:18:19;;;;;;;76.28;30.63;;;4.50;99.90;;;;;;5095131;28;20097;-83
2021/12/10 00:20:48;;;;;;;72.35;28.48;;;4.50;99.90;;;;;;5095087;28;20048;-83
2021/12/10 00:23:18;;;;;;;77.75;29.88;;;4.50;99.90;;;;;;5095182;28;20077;-83
2021/12/10 00:25:49;;;;;;;72.00;29.73;;;4.50;99.90;;;;;;5095214;28;20376;-83
2021/12/10 00:28:32;;;;;;;66.72;26.92;;;4.50;99.90;;;;;;5095015;28;20050;-83
2021/12/10 00:31:18;;;;;;;65.78;26.77;;;4.50;99.90;;;;;;5095142;28;20044;-83
2021/12/10 00:33:55;;;;;;;72.70;27.42;;;4.50;99.90;;;;;;5095353;28;20059;-83
2021/12/10 00:36:22;;;;;;;69.07;27.13;;;4.50;99.90;;;;;;5094779;28;20097;-83
2021/12/10 00:38:48;;;;;;;75.22;28.35;;;4.50;99.90;;;;;;5094911;28;20116;-83
2021/12/10 00:41:14;;;;;;;74.43;29.08;;;4.50;99.90;;;;;;5095124;28;20093;-83
2021/12/10 00:43:41;;;;;;;59.13;24.23;;;4.50;99.90;;;;;;5094831;28;20391;-83
2021/12/10 00:46:06;;;;;;;65.85;25.35;;;4.50;99.90;;;;;;5094785;28;20506;-83
2021/12/10 00:48:33;;;;;;;61.03;23.85;;;4.50;99.90;;;;;;5094806;28;20052;-83
2021/12/10 00:51:01;;;;;;;65.97;23.58;;;4.50;99.90;;;;;;5095977;28;20055;-83
2021/12/10 00:53:27;;;;;;;61.20;22.48;;;4.50;99.90;;;;;;5094859;28;20063;-83
2021/12/10 00:55:54;;;;;;;59.67;24.45;;;4.50;99.90;;;;;;5094186;28;20495;-83
2021/12/10 00:58:21;;;;;;;55.38;23.40;;;4.50;99.90;;;;;;5094610;28;20602;-83
2021/12/10 01:01:09;;;;;;;62.70;23.75;;;4.40;99.90;;;;;;5094745;28;20036;-83
2021/12/10 01:03:46;;;;;;;58.55;23.17;;;4.50;99.90;;;;;;5095429;28;20501;-83
2021/12/10 01:06:16;;;;;;;50.47;21.92;;;4.40;99.90;;;;;;5094668;28;20051;-83
2021/12/10 01:08:44;;;;;;;55.13;23.65;;;4.50;99.90;;;;;;5094442;28;20066;-83
2021/12/10 01:11:16;;;;;;;60.53;22.38;;;4.50;99.90;;;;;;5094580;28;20066;-83
2021/12/10 01:13:45;;;;;;;52.05;20.65;;;4.40;99.90;;;;;;5095617;28;20040;-83
2021/12/10 01:24:37;;;;;;;48.70;18.73;;;4.40;99.90;;;;;;5093872;28;20087;-83
2021/12/10 01:27:24;;;;;;;48.40;20.80;;;4.40;99.90;;;;;;5093996;28;20048;-83
2021/12/10 01:29:56;;;;;;;50.67;19.65;;;4.40;99.90;;;;;;5093972;28;20044;-83
2021/12/10 01:32:23;;;;;;;49.28;19.58;;;4.40;99.90;;;;;;5093787;28;20461;-83
2021/12/10 01:34:48;;;;;;;49.20;20.17;;;4.40;99.90;;;;;;5093890;28;20036;-83
2021/12/10 01:37:14;;;;;;;53.38;20.42;;;4.40;99.90;;;;;;5093715;28;20399;-83
2021/12/10 01:39:42;;;;;;;50.15;20.30;;;4.40;99.90;;;;;;5093892;28;20101;-83
2021/12/10 01:42:39;;;;;;;51.05;21.65;;;4.50;99.90;;;;;;5093946;28;20105;-83
2021/12/10 01:45:10;;;;;;;44.05;18.23;;;4.40;99.90;;;;;;5093670;28;20079;-83
2021/12/10 01:47:38;;;;;;;56.78;22.13;;;4.50;99.90;;;;;;5093830;28;20047;-83
2021/12/10 01:50:06;;;;;;;51.78;21.58;;;4.50;99.90;;;;;;5093476;28;20074;-83
2021/12/10 01:52:33;;;;;;;59.67;20.88;;;4.50;99.90;;;;;;5093482;28;20048;-83
2021/12/10 01:55:03;;;;;;;55.92;20.98;;;4.50;99.90;;;;;;5093127;28;20051;-83
2021/12/10 01:57:33;;;;;;;50.08;20.77;;;4.40;99.90;;;;;;5093623;28;20044;-83
2021/12/10 02:00:00;;;;;;;50.25;20.10;;;4.50;99.90;;;;;;5093596;28;20043;-83
2021/12/10 02:02:30;;;;;;;51.15;20.45;;;4.50;99.90;;;;;;5092197;22;20100;-86
2021/12/10 02:04:57;;;;;;;47.60;21.00;;;4.40;99.90;;;;;;5013848;28;20091;-86
2021/12/10 02:07:25;;;;;;;44.35;19.35;;;4.40;99.90;;;;;;5013654;28;20045;-86
2021/12/10 02:09:51;;;;;;;54.53;19.80;;;4.30;99.90;;;;;;5013208;28;20082;-86
2021/12/10 02:12:19;;;;;;;46.47;20.50;;;4.30;99.90;;;;;;5013416;28;20057;-86
2021/12/10 02:14:46;;;;;;;52.90;21.08;;;4.20;99.90;;;;;;5013065;28;20413;-86
2021/12/10 02:17:12;;;;;;;46.67;20.40;;;4.10;99.90;;;;;;5013198;28;20046;-86
2021/12/10 02:19:39;;;;;;;49.50;20.05;;;4.10;99.90;;;;;;5013193;28;20050;-87
2021/12/10 02:22:07;;;;;;;58.28;22.23;;;4.10;99.90;;;;;;5014177;28;20053;-86
2021/12/10 02:24:33;;;;;;;55.92;21.73;;;4.10;99.90;;;;;;5012555;28;20053;-86
2021/12/10 02:27:03;;;;;;;54.28;22.98;;;4.10;99.90;;;;;;5012951;28;20050;-86
2021/12/10 02:29:33;;;;;;;51.35;20.13;;;4.10;99.90;;;;;;5013005;28;20125;-86
2021/12/10 02:31:59;;;;;;;42.70;20.55;;;4.10;99.90;;;;;;5012971;28;20126;-86
2021/12/10 02:34:26;;;;;;;55.05;20.60;;;4.00;99.90;;;;;;5012842;28;20049;-86
2021/12/10 02:36:52;;;;;;;50.35;20.55;;;4.00;99.90;;;;;;5013023;28;20061;-86
2021/12/10 02:39:22;;;;;;;57.75;20.38;;;4.00;99.90;;;;;;5013013;28;20085;-86
2021/12/10 02:41:49;;;;;;;62.78;21.05;;;4.00;99.90;;;;;;5013069;28;20042;-86
2021/12/10 02:44:19;;;;;;;42.95;18.38;;;4.00;99.90;;;;;;5013214;28;20460;-86
2021/12/10 02:46:45;;;;;;;48.47;20.40;;;4.00;99.90;;;;;;5012833;28;20056;-86
2021/12/10 02:49:11;;;;;;;42.78;18.63;;;4.00;99.90;;;;;;5013153;28;20053;-86
2021/12/10 02:51:38;;;;;;;54.65;19.13;;;4.00;99.90;;;;;;5012553;28;20145;-86
2021/12/10 02:54:07;;;;;;;41.80;18.20;;;4.10;99.90;;;;;;5012686;28;20088;-86
2021/12/10 02:56:33;;;;;;;40.17;18.05;;;4.10;99.90;;;;;;5012686;28;20078;-86
2021/12/10 02:59:01;;;;;;;50.17;18.98;;;4.10;99.90;;;;;;5012953;28;20069;-86
2021/12/10 03:01:36;;;;;;;43.67;19.13;;;4.10;99.90;;;;;;5012563;28;20049;-86
2021/12/10 03:04:03;;;;;;;41.10;16.45;;;4.10;99.90;;;;;;5012420;28;20498;-86
2021/12/10 03:06:30;;;;;;;39.25;17.33;;;4.10;99.90;;;;;;5012477;28;20038;-86
2021/12/10 03:08:57;;;;;;;36.38;17.48;;;4.10;99.90;;;;;;5012541;28;20084;-86
2021/12/10 03:11:27;;;;;;;39.22;15.15;;;4.10;99.90;;;;;;5012534;28;20041;-86
2021/12/10 03:13:53;;;;;;;32.65;15.63;;;4.10;99.90;;;;;;5012577;28;20104;-86
2021/12/10 03:16:20;;;;;;;40.33;16.58;;;4.20;99.90;;;;;;5012172;28;20049;-86
2021/12/10 03:18:46;;;;;;;38.53;16.77;;;4.10;99.90;;;;;;5012306;28;20555;-86
2021/12/10 03:21:12;;;;;;;40.90;16.35;;;4.10;99.90;;;;;;5012372;28;20053;-86
2021/12/10 03:23:43;;;;;;;42.03;17.73;;;4.10;99.90;;;;;;5012620;28;20049;-86
2021/12/10 03:26:14;;;;;;;38.50;16.23;;;4.20;99.90;;;;;;5012449;28;20500;-86
2021/12/10 03:28:41;;;;;;;35.05;14.85;;;4.10;99.90;;;;;;5012691;28;20085;-86
2021/12/10 03:31:08;;;;;;;32.38;14.23;;;4.10;99.90;;;;;;5012189;28;20099;-86
2021/12/10 03:33:35;;;;;;;43.42;16.98;;;4.10;99.90;;;;;;5012416;28;20477;-86
2021/12/10 03:36:00;;;;;;;33.08;14.10;;;4.20;99.90;;;;;;5012244;28;20042;-87
2021/12/10 03:38:27;;;;;;;35.00;15.02;;;4.10;99.90;;;;;;5015655;28;20045;-87
2021/12/10 03:40:53;;;;;;;36.72;14.85;;;4.20;99.90;;;;;;5016155;28;20063;-87
2021/12/10 03:43:20;;;;;;;37.15;15.25;;;4.20;99.90;;;;;;5016049;28;20038;-87
2021/12/10 03:45:49;;;;;;;32.33;13.95;;;4.20;99.90;;;;;;5015851;28;20045;-86
2021/12/10 03:48:19;;;;;;;44.78;16.70;;;4.20;99.90;;;;;;5015880;28;20046;-86
2021/12/10 03:50:47;;;;;;;46.72;16.65;;;4.20;99.90;;;;;;5016115;28;20050;-87
2021/12/10 03:53:15;;;;;;;49.75;16.95;;;4.20;99.90;;;;;;5015838;28;20036;-86
2021/12/10 03:55:41;;;;;;;39.08;16.52;;;4.20;99.90;;;;;;5015851;28;20548;-86
2021/12/10 03:58:07;;;;;;;49.15;16.70;;;4.20;99.90;;;;;;5015611;28;20077;-86
2021/12/10 04:00:39;;;;;;;43.47;16.13;;;4.20;99.90;;;;;;5015613;28;20135;-86
2021/12/10 04:03:05;;;;;;;45.47;16.77;;;4.10;99.90;;;;;;5015527;28;20065;-86
2021/12/10 04:05:31;;;;;;;39.22;16.98;;;4.10;99.90;;;;;;5015586;28;20398;-86
2021/12/10 04:07:58;;;;;;;38.58;15.27;;;4.10;99.90;;;;;;5015878;28;20048;-86
2021/12/10 04:10:24;;;;;;;35.30;16.25;;;4.10;99.90;;;;;;5015374;28;20046;-86
2021/12/10 04:12:50;;;;;;;44.28;16.27;;;4.10;99.90;;;;;;5017015;28;20045;-86
2021/12/10 04:15:20;;;;;;;45.60;17.67;;;4.10;99.90;;;;;;5015306;28;20539;-86
2021/12/10 04:17:48;;;;;;;47.35;17.33;;;4.10;99.90;;;;;;5015487;28;20077;-86
2021/12/10 04:20:15;;;;;;;34.47;16.33;;;4.10;99.90;;;;;;5015413;28;20092;-86
2021/12/10 04:22:46;;;;;;;39.80;16.73;;;4.10;99.90;;;;;;5015295;28;20379;-87
2021/12/10 04:25:14;;;;;;;43.58;17.73;;;4.00;99.90;;;;;;5015184;28;20050;-86
2021/12/10 04:27:42;;;;;;;36.63;17.05;;;4.00;99.90;;;;;;5015358;28;20394;-86
2021/12/10 04:30:12;;;;;;;39.97;16.23;;;4.00;99.90;;;;;;5015345;28;20088;-86
2021/12/10 04:32:38;;;;;;;36.05;16.25;;;4.00;99.90;;;;;;5015367;28;20089;-86
2021/12/10 04:35:04;;;;;;;37.88;15.57;;;4.00;99.90;;;;;;5015189;28;20096;-86
2021/12/10 04:37:30;;;;;;;34.90;15.93;;;4.00;99.90;;;;;;5015184;28;20063;-87
2021/12/10 04:39:55;;;;;;;35.80;16.10;;;4.00;99.90;;;;;;5016165;28;20404;-87
2021/12/10 04:42:24;;;;;;;34.95;16.08;;;4.00;99.90;;;;;;5014992;28;20081;-86
2021/12/10 04:44:55;;;;;;;38.50;16.50;;;4.00;99.90;;;;;;5014970;28;20053;-87
2021/12/10 04:47:21;;;;;;;39.78;17.55;;;3.90;99.90;;;;;;5014835;28;20034;-87
2021/12/10 04:49:47;;;;;;;45.60;17.83;;;3.90;99.90;;;;;;5014780;28;20080;-86
2021/12/10 04:52:13;;;;;;;43.35;16.70;;;3.90;99.90;;;;;;5015924;28;20042;-87
2021/12/10 04:54:39;;;;;;;32.70;15.05;;;3.90;99.90;;;;;;5014550;28;20497;-86
2021/12/10 04:57:05;;;;;;;37.72;16.60;;;3.90;99.90;;;;;;5014507;28;20045;-87
2021/12/10 04:59:34;;;;;;;33.42;15.80;;;3.90;99.90;;;;;;5014750;28;20049;-87
2021/12/10 05:02:03;;;;;;;48.70;19.88;;;3.90;99.90;;;;;;5014564;28;20049;-87
2021/12/10 05:04:30;;;;;;;41.88;17.23;;;3.80;99.90;;;;;;5014824;28;20045;-86
2021/12/10 05:06:56;;;;;;;32.72;15.55;;;3.80;99.90;;;;;;5014399;28;20057;-86
2021/12/10 05:09:22;;;;;;;38.00;16.52;;;3.80;99.90;;;;;;5014535;28;20060;-86
2021/12/10 05:11:50;;;;;;;36.47;15.82;;;3.80;99.90;;;;;;5014569;28;20046;-86
2021/12/10 05:14:16;;;;;;;34.70;15.70;;;3.80;99.90;;;;;;5014371;28;20042;-86
2021/12/10 05:16:45;;;;;;;35.63;17.02;;;3.80;99.90;;;;;;5014270;28;20402;-86
2021/12/10 05:19:14;;;;;;;46.20;18.60;;;3.80;99.90;;;;;;5014506;28;20046;-86
2021/12/10 05:21:41;;;;;;;42.78;19.08;;;3.80;99.90;;;;;;5014345;28;20137;-87
2021/12/10 05:24:08;;;;;;;42.67;18.95;;;3.70;99.90;;;;;;5014343;28;20069;-87
2021/12/10 05:26:35;;;;;;;37.20;17.77;;;3.70;99.90;;;;;;5014069;28;20536;-87
2021/12/10 05:29:03;;;;;;;39.15;17.80;;;3.70;99.90;;;;;;5014087;28;20401;-87
2021/12/10 05:31:29;;;;;;;44.25;20.50;;;3.60;99.90;;;;;;5013995;28;20481;-87
2021/12/10 05:33:54;;;;;;;39.22;17.70;;;3.60;99.90;;;;;;5013859;28;20070;-86
2021/12/10 05:36:20;;;;;;;40.88;18.20;;;3.50;99.90;;;;;;5013757;28;20085;-87
2021/12/10 05:38:46;;;;;;;34.35;17.70;;;3.50;99.90;;;;;;5013843;28;20045;-87
2021/12/10 05:41:12;;;;;;;38.05;20.33;;;3.50;99.90;;;;;;5013854;28;20083;-87
2021/12/10 05:43:41;;;;;;;46.58;20.45;;;3.40;99.90;;;;;;5014141;28;20037;-86
2021/12/10 05:46:07;;;;;;;42.75;20.23;;;3.40;99.90;;;;;;5013732;28;20500;-87
2021/12/10 05:48:33;;;;;;;46.85;21.42;;;3.30;99.90;;;;;;5013588;28;20084;-86
2021/12/10 05:50:59;;;;;;;46.55;21.95;;;3.30;99.90;;;;;;5013601;28;20077;-85
2021/12/10 05:53:25;;;;;;;44.38;20.42;;;3.30;99.90;;;;;;5013416;28;20136;-86
2021/12/10 05:55:52;;;;;;;45.15;20.83;;;3.20;99.90;;;;;;5013512;28;20132;-86
2021/12/10 05:58:18;;;;;;;42.15;20.60;;;3.10;99.90;;;;;;5013638;28;20561;-86
2021/12/10 06:00:52;;;;;;;53.47;23.10;;;3.20;99.90;;;;;;5012821;28;20121;-86
2021/12/10 06:03:18;;;;;;;50.45;21.98;;;3.10;99.90;;;;;;5013132;28;20401;-86
2021/12/10 06:05:46;;;;;;;45.63;20.70;;;3.10;99.90;;;;;;5014593;28;20061;-86
2021/12/10 06:08:13;;;;;;;49.83;22.50;;;3.00;99.90;;;;;;5013613;28;20393;-86
2021/12/10 06:10:40;;;;;;;46.05;20.10;;;3.00;99.90;;;;;;5013380;28;20045;-86
2021/12/10 06:13:07;;;;;;;51.22;22.92;;;2.90;99.90;;;;;;5013530;28;20054;-86
2021/12/10 06:15:34;;;;;;;48.67;23.50;;;2.90;99.90;;;;;;5013167;28;20046;-86
2021/12/10 06:17:59;;;;;;;47.83;22.58;;;2.90;99.90;;;;;;5013307;28;20045;-86
2021/12/10 06:20:32;;;;;;;48.97;21.50;;;2.90;99.90;;;;;;5013309;28;20603;-87
2021/12/10 06:22:59;;;;;;;46.13;22.10;;;2.90;99.90;;;;;;5013135;28;20378;-87
2021/12/10 06:25:27;;;;;;;49.90;23.40;;;2.90;99.90;;;;;;5013386;28;20444;-87
2021/12/10 06:27:54;;;;;;;49.67;21.27;;;2.80;99.90;;;;;;5013153;28;20053;-86
2021/12/10 06:30:23;;;;;;;50.55;22.17;;;2.80;99.90;;;;;;5013277;28;20054;-86
2021/12/10 06:32:52;;;;;;;44.55;21.70;;;2.80;99.90;;;;;;5012903;28;20540;-87
2021/12/10 06:35:18;;;;;;;47.20;22.52;;;2.80;99.90;;;;;;5013040;28;20088;-87
2021/12/10 06:37:44;;;;;;;51.42;22.05;;;2.70;99.90;;;;;;5013120;28;20053;-87
2021/12/10 06:40:16;;;;;;;45.42;22.27;;;2.70;99.90;;;;;;5012908;28;20050;-87
2021/12/10 06:42:42;;;;;;;49.78;22.13;;;2.70;99.90;;;;;;5012972;28;20085;-86
2021/12/10 06:45:12;;;;;;;48.28;22.00;;;2.70;99.90;;;;;;5012732;28;20045;-87
2021/12/10 06:47:40;;;;;;;53.10;22.30;;;2.70;99.90;;;;;;5012712;28;20425;-87
2021/12/10 06:50:07;;;;;;;46.05;20.35;;;2.70;99.90;;;;;;5013058;28;20054;-86
2021/12/10 06:52:33;;;;;;;47.60;21.05;;;2.70;99.90;;;;;;5012981;28;20482;-86
2021/12/10 06:54:59;;;;;;;52.92;22.50;;;2.70;99.90;;;;;;5012413;28;20045;-86
2021/12/10 06:57:25;;;;;;;46.92;21.88;;;2.70;99.90;;;;;;5012548;28;20433;-87
2021/12/10 06:59:53;;;;;;;49.53;21.98;;;2.60;99.90;;;;;;5012557;28;20525;-86
2021/12/10 07:02:19;;;;;;;54.10;23.73;;;2.60;99.90;;;;;;5012226;28;20061;-87
2021/12/10 07:04:45;;;;;;;50.42;23.20;;;2.60;99.90;;;;;;5013892;28;20046;-87
2021/12/10 07:07:11;;;;;;;51.58;23.75;;;2.60;99.90;;;;;;5013938;28;20090;-87
2021/12/10 07:09:38;;;;;;;51.60;22.08;;;2.60;99.90;;;;;;5013653;28;20060;-87
2021/12/10 07:12:05;;;;;;;50.67;21.75;;;2.50;99.90;;;;;;5015674;28;20496;-86
2021/12/10 07:14:31;;;;;;;49.53;22.75;;;2.50;99.90;;;;;;5016399;28;20046;-86
2021/12/10 07:16:57;;;;;;;45.00;21.00;;;2.50;99.90;;;;;;5016571;28;20049;-86
2021/12/10 07:19:26;;;;;;;49.42;22.92;;;2.50;99.90;;;;;;5016272;28;20409;-86
2021/12/10 07:21:53;;;;;;;51.40;23.20;;;2.50;99.90;;;;;;5016347;28;20046;-87
2021/12/10 07:24:19;;;;;;;52.50;24.17;;;2.50;99.90;;;;;;5014971;28;20589;-86
2021/12/10 07:26:46;;;;;;;50.88;23.65;;;2.50;99.90;;;;;;5016274;28;20485;-86
2021/12/10 07:29:12;;;;;;;56.40;23.35;;;2.40;99.90;;;;;;5016120;28;20085;-86
2021/12/10 07:31:40;;;;;;;51.08;22.83;;;2.50;99.90;;;;;;5016064;28;20046;-87
2021/12/10 07:34:06;;;;;;;54.13;24.77;;;2.40;99.90;;;;;;5016047;28;20160;-87
2021/12/10 07:36:33;;;;;;;52.95;25.05;;;2.40;99.90;;;;;;5015783;28;20045;-87
2021/12/10 07:39:13;;;;;;;47.35;21.38;;;2.40;99.90;;;;;;5015981;28;20046;-87
2021/12/10 07:41:42;;;;;;;54.78;25.00;;;2.40;99.90;;;;;;5016203;28;20050;-87
2021/12/10 07:44:09;;;;;;;54.03;24.55;;;2.30;99.90;;;;;;5015925;28;20045;-87
2021/12/10 07:46:35;;;;;;;50.65;23.02;;;2.30;99.90;;;;;;5015741;28;20049;-87
2021/12/10 07:49:14;;;;;;;48.30;22.17;;;2.30;99.90;;;;;;5016057;28;20133;-87
2021/12/10 07:51:44;;;;;;;48.25;22.83;;;2.30;99.90;;;;;;5015784;28;20042;-86
2021/12/10 07:54:11;;;;;;;50.08;23.45;;;2.30;99.90;;;;;;5015756;28;20108;-86
2021/12/10 07:56:38;;;;;;;48.13;21.65;;;2.30;99.90;;;;;;5015485;28;20401;-87
2021/12/10 07:59:04;;;;;;;51.13;22.23;;;2.30;99.90;;;;;;5015532;28;20392;-88
2021/12/10 08:01:31;;;;;;;51.25;21.38;;;2.30;99.90;;;;;;5007221;28;20105;-87
2021/12/10 08:03:58;;;;;;;41.13;19.00;;;2.30;99.90;;;;;;5005005;28;20054;-88
2021/12/10 08:06:26;;;;;;;42.03;19.27;;;2.30;99.90;;;;;;5012424;28;20049;-87
2021/12/10 08:08:52;;;;;;;42.25;19.65;;;2.30;99.90;;;;;;4995878;28;20042;-86
2021/12/10 08:11:27;;;;;;;40.28;18.30;;;2.30;99.90;;;;;;4996870;28;20046;-86
2021/12/10 08:13:54;;;;;;;42.58;19.10;;;2.30;99.90;;;;;;4995479;28;20138;-86
2021/12/10 08:16:22;;;;;;;43.95;21.27;;;2.30;99.90;;;;;;4995449;28;20116;-86
2021/12/10 08:18:47;;;;;;;39.30;18.02;;;2.30;99.90;;;;;;4995783;28;20042;-86
2021/12/10 08:21:13;;;;;;;37.97;18.13;;;2.30;99.90;;;;;;4995628;28;20185;-86
2021/12/10 08:23:39;;;;;;;40.58;16.90;;;2.30;99.90;;;;;;4994580;28;20065;-86
2021/12/10 08:26:06;;;;;;;36.47;17.52;;;2.30;99.90;;;;;;4995230;28;20064;-87
2021/12/10 08:28:33;;;;;;;39.70;16.85;;;2.30;99.90;;;;;;5011682;28;20453;-86
2021/12/10 08:31:17;;;;;;;35.53;16.80;;;2.30;99.90;;;;;;4995357;28;20128;-86
2021/12/10 08:33:49;;;;;;;37.53;16.70;;;2.30;99.90;;;;;;4995558;28;20049;-89
2021/12/10 08:36:28;;;;;;;43.10;19.40;;;2.30;99.90;;;;;;4995139;28;20490;-88
2021/12/10 08:38:55;;;;;;;33.92;16.02;;;2.30;99.90;;;;;;4994905;28;20049;-86
2021/12/10 08:41:27;;;;;;;41.17;18.35;;;2.40;99.90;;;;;;4994944;28;20046;-86
2021/12/10 08:43:56;;;;;;;39.83;17.73;;;2.40;99.90;;;;;;4995630;28;20049;-87
2021/12/10 08:46:24;;;;;;;42.90;18.02;;;2.40;99.90;;;;;;4994945;28;20042;-89
2021/12/10 08:48:50;;;;;;;39.17;18.42;;;2.40;99.90;;;;;;4994959;28;20042;-88
2021/12/10 08:51:22;;;;;;;40.70;18.90;;;2.40;99.90;;;;;;4994964;28;20093;-88
2021/12/10 08:53:49;;;;;;;35.53;16.97;;;2.40;99.90;;;;;;4994757;28;20452;-89
2021/12/10 08:59:04;;;;;;;32.30;16.08;;;2.50;99.90;;;;;;4995133;28;20042;-87
2021/12/10 09:01:34;;;;;;;36.33;16.00;;;2.50;99.90;;;;;;4994824;28;20046;-88
2021/12/10 09:04:02;;;;;;;35.90;15.77;;;2.50;99.90;;;;;;4995046;28;20458;-88
2021/12/10 09:06:32;;;;;;;33.30;14.43;;;2.50;99.90;;;;;;4994984;28;20129;-88
2021/12/10 09:08:58;;;;;;;34.72;14.48;;;2.50;99.90;;;;;;4994650;28;20063;-88
2021/12/10 09:11:26;;;;;;;33.30;14.90;;;2.50;99.90;;;;;;4994549;28;20442;-88
2021/12/10 09:13:53;;;;;;;35.25;15.63;;;2.50;99.90;;;;;;4994671;28;20050;-88
2021/12/10 09:16:24;;;;;;;33.33;15.32;;;2.60;99.90;;;;;;4994115;28;20052;-88
2021/12/10 09:18:53;;;;;;;32.65;13.88;;;2.60;99.90;;;;;;4994587;28;20054;-89
2021/12/10 09:21:20;;;;;;;29.73;14.23;;;2.70;99.90;;;;;;4994659;28;20081;-87
2021/12/10 09:23:46;;;;;;;30.95;14.60;;;2.70;99.90;;;;;;4994291;28;20588;-88
2021/12/10 09:26:17;;;;;;;27.40;12.50;;;2.70;99.90;;;;;;4994650;28;20043;-91
2021/12/10 09:28:45;;;;;;;29.60;13.23;;;2.80;99.90;;;;;;5017316;28;20049;-90
2021/12/10 09:31:11;;;;;;;30.98;12.90;;;2.90;99.90;;;;;;5018313;28;20053;-91
2021/12/10 09:33:42;;;;;;;28.58;13.65;;;2.90;99.90;;;;;;5016522;28;20045;-89
2021/12/10 09:36:09;;;;;;;28.10;13.60;;;3.00;99.90;;;;;;5012470;28;20052;-87
2021/12/10 09:38:35;;;;;;;29.35;13.15;;;3.00;99.90;;;;;;5012743;28;20177;-87
2021/12/10 09:41:23;;;;;;;25.52;12.25;;;3.10;99.90;;;;;;5013091;28;20088;-90
2021/12/10 09:43:51;;;;;;;30.52;12.38;;;3.10;99.90;;;;;;5007305;28;20092;-91
2021/12/10 10:23:30;;;;;;;23.85;10.23;;;4.00;99.90;;;;;;4885177;23;20060;-92
2021/12/10 10:29:53;;;;;;;24.65;11.38;;;4.20;99.90;;;;;;4863798;29;20056;-94
2021/12/10 10:32:24;;;;;;;21.15;10.18;;;4.30;99.90;;;;;;4864279;29;20053;-93
2021/12/10 10:34:54;;;;;;;22.65;10.45;;;4.30;99.90;;;;;;4863893;29;20045;-89
2021/12/10 10:57:15;;;;;;;20.20;9.45;;;4.30;99.90;;;;;;4910923;23;20066;-93
2021/12/10 11:12:08;;;;;;;19.10;9.85;;;4.50;99.90;;;;;;4055199;23;20560;-88
2021/12/10 11:14:40;;;;;;;19.63;9.38;;;4.60;99.90;;;;;;4862583;29;20060;-85
2021/12/10 11:17:12;;;;;;;19.90;9.68;;;4.70;99.90;;;;;;4862368;29;20143;-85
2021/12/10 11:19:41;;;;;;;18.52;9.75;;;4.70;99.90;;;;;;4862686;29;20049;-85
2021/12/10 11:22:14;;;;;;;19.58;9.40;;;4.80;99.90;;;;;;4862874;29;20116;-85
2021/12/10 11:25:23;;;;;;;21.52;10.45;;;4.80;99.90;;;;;;4862500;29;20486;-90
2021/12/10 11:27:49;;;;;;;22.30;9.43;;;4.90;99.90;;;;;;4859986;29;20080;-88
2021/12/10 11:30:22;;;;;;;19.65;8.85;;;4.90;99.90;;;;;;4863034;29;20106;-87
2021/12/10 11:36:30;;;;;;;16.55;7.70;;;5.10;99.90;;;;;;4964102;23;20056;-89
2021/12/10 11:38:57;;;;;;;18.65;9.38;;;5.10;99.90;;;;;;4863691;29;20081;-93
2021/12/10 11:41:27;;;;;;;17.65;8.43;;;5.10;99.90;;;;;;4864676;29;20045;-93
2021/12/10 11:49:58;;;;;;;14.57;8.68;;;5.10;99.90;;;;;;4880376;29;20052;-92
2021/12/10 11:53:10;;;;;;;17.77;8.68;;;5.20;99.90;;;;;;4954443;24;20161;-93
2021/12/10 11:55:37;;;;;;;16.05;8.27;;;5.20;99.90;;;;;;4866467;29;20056;-94
2021/12/10 11:58:16;;;;;;;19.13;8.13;;;5.20;99.90;;;;;;4880359;29;20504;-94
2021/12/10 12:03:14;;;;;;;15.68;7.72;;;5.20;99.90;;;;;;4888766;23;20060;-95
2021/12/10 12:05:42;;;;;;;17.25;7.45;;;5.10;99.90;;;;;;4867799;29;20049;-92
2021/12/10 12:08:14;;;;;;;18.83;8.45;;;5.20;99.90;;;;;;4866869;29;20061;-91
2021/12/10 12:10:44;;;;;;;17.17;7.82;;;5.20;99.90;;;;;;4867428;29;20086;-92
2021/12/10 12:19:30;;;;;;;16.83;7.93;;;5.20;99.90;;;;;;4904469;23;20079;-93
2021/12/10 12:21:59;;;;;;;15.57;8.48;;;5.20;99.90;;;;;;4824357;29;20126;-91
2021/12/10 12:42:49;;;;;;;15.05;7.40;;;5.20;99.90;;;;;;5354485;23;20032;-94
2021/12/10 12:52:32;;;;;;;15.00;6.85;;;5.20;99.90;;;;;;4840178;29;20057;-93
2021/12/10 12:59:29;;;;;;;14.10;6.10;;;5.20;99.90;;;;;;2088608;23;21575;-95
2021/12/10 13:06:17;;;;;;;15.98;7.88;;;5.20;99.90;;;;;;4809968;29;20067;-94
2021/12/10 13:09:23;;;;;;;17.35;7.63;;;5.20;99.90;;;;;;4809262;29;20133;-92
2021/12/10 13:12:09;;;;;;;17.85;9.77;;;5.20;99.90;;;;;;4809479;29;20051;-93
2021/12/10 13:20:22;;;;;;;20.73;9.18;;;5.10;99.90;;;;;;5340138;23;20065;-95
2021/12/10 13:26:52;;;;;;;17.73;8.77;;;4.90;99.90;;;;;;4869015;24;20049;-89
2021/12/10 13:29:18;;;;;;;16.73;7.57;;;4.90;99.90;;;;;;4845835;29;20139;-88
2021/12/10 13:31:45;;;;;;;18.83;10.35;;;4.90;99.90;;;;;;4845779;29;20129;-89
2021/12/10 13:34:11;;;;;;;16.63;8.15;;;4.90;99.90;;;;;;4846106;29;20050;-87
2021/12/10 13:36:38;;;;;;;15.70;8.07;;;4.80;99.90;;;;;;4845996;29;20049;-87
2021/12/10 13:39:10;;;;;;;16.10;8.07;;;4.80;99.90;;;;;;4845595;29;20054;-88
2021/12/10 13:41:36;;;;;;;20.27;8.65;;;4.70;99.90;;;;;;4845813;29;20085;-87
2021/12/10 13:44:33;;;;;;;17.30;8.45;;;4.70;99.90;;;;;;4845409;29;20049;-85
2021/12/10 13:47:22;;;;;;;18.20;9.05;;;4.70;99.90;;;;;;4845658;29;20148;-85
2021/12/10 13:49:53;;;;;;;14.90;8.45;;;4.70;99.90;;;;;;4845957;29;20372;-84
2021/12/10 13:52:37;;;;;;;20.02;8.68;;;4.70;99.90;;;;;;4845362;29;20548;-85
2021/12/10 13:55:07;;;;;;;19.40;8.85;;;4.60;99.90;;;;;;4845273;29;20410;-89
2021/12/10 13:57:33;;;;;;;18.52;8.32;;;4.60;99.90;;;;;;4845947;29;20049;-87
2021/12/10 14:00:01;;;;;;;17.02;7.95;;;4.60;99.90;;;;;;4845217;29;20081;-86
2021/12/10 14:02:45;;;;;;;18.67;8.93;;;4.60;99.90;;;;;;4845442;29;20050;-90
2021/12/10 14:05:19;;;;;;;17.50;8.25;;;4.60;99.90;;;;;;4845756;29;20080;-91
2021/12/10 14:08:00;;;;;;;18.27;8.55;;;4.50;99.90;;;;;;4845844;29;20065;-93
2021/12/10 14:10:31;;;;;;;17.67;8.82;;;4.50;99.90;;;;;;4847492;29;20037;-91
2021/12/10 14:12:59;;;;;;;15.95;9.85;;;4.50;99.90;;;;;;4845683;29;20505;-94
2021/12/10 14:15:43;;;;;;;17.00;8.82;;;4.40;99.90;;;;;;4846129;29;20134;-91
2021/12/10 14:18:24;;;;;;;18.83;8.95;;;4.40;99.90;;;;;;4845938;29;20056;-92
2021/12/10 14:21:10;;;;;;;19.35;9.48;;;4.30;99.90;;;;;;4846663;29;20071;-92
2021/12/10 14:23:46;;;;;;;17.17;8.75;;;4.30;99.90;;;;;;4845902;29;20058;-92
2021/12/10 14:26:18;;;;;;;18.67;9.38;;;4.20;99.90;;;;;;4868222;29;20061;-91
2021/12/10 14:29:02;;;;;;;19.93;9.90;;;4.10;99.90;;;;;;4879140;29;20109;-91
2021/12/10 14:31:43;;;;;;;16.25;8.98;;;4.00;99.90;;;;;;4879124;29;20357;-90
2021/12/10 14:34:21;;;;;;;20.15;10.32;;;4.00;99.90;;;;;;4879135;29;20053;-91
2021/12/10 14:37:04;;;;;;;21.85;10.75;;;4.00;99.90;;;;;;4879095;29;20148;-86
2021/12/10 14:39:35;;;;;;;23.65;10.23;;;3.90;99.90;;;;;;4879593;29;20049;-91
2021/12/10 14:42:12;;;;;;;19.08;9.38;;;3.90;99.90;;;;;;4878839;29;20449;-88
2021/12/10 14:44:41;;;;;;;23.25;10.88;;;3.80;99.90;;;;;;4878532;29;20140;-89
2021/12/10 14:47:17;;;;;;;22.50;9.82;;;3.70;99.90;;;;;;4878998;29;20049;-90
2021/12/10 14:49:46;;;;;;;19.63;9.88;;;3.70;99.90;;;;;;4879007;29;20059;-90
2021/12/10 14:52:34;;;;;;;19.70;10.10;;;3.70;99.90;;;;;;4879009;29;20401;-91
2021/12/10 14:55:22;;;;;;;19.15;10.23;;;3.60;99.90;;;;;;4879609;29;20429;-90
2021/12/10 14:58:24;;;;;;;17.35;10.07;;;3.50;99.90;;;;;;4878943;29;20509;-91
2021/12/10 15:01:20;;;;;;;22.23;9.63;;;3.50;99.90;;;;;;4879392;29;20136;-90
2021/12/10 15:03:47;;;;;;;23.90;11.98;;;3.50;99.90;;;;;;4878994;29;20133;-90
2021/12/10 15:06:16;;;;;;;18.67;9.40;;;3.40;99.90;;;;;;4879001;29;20045;-90
2021/12/10 15:08:58;;;;;;;15.55;9.07;;;3.30;99.90;;;;;;4878486;29;20136;-90
2021/12/10 15:11:42;;;;;;;19.08;10.07;;;3.30;99.90;;;;;;4878453;29;20060;-89
2021/12/10 15:14:23;;;;;;;19.08;10.02;;;3.20;99.90;;;;;;4878612;29;20533;-90
2021/12/10 15:17:11;;;;;;;19.67;9.73;;;3.20;99.90;;;;;;4878580;29;20061;-90
2021/12/10 15:19:46;;;;;;;16.40;9.23;;;3.10;99.90;;;;;;4873956;29;20057;-90